Time;durP1;ratioP1;P1;durP2;ratioP2;P2;SDS_P1;SDS_P2;PMS_P1;PMS_P2;Temp;Humidity;BMP_temperature;BMP_pressure;BME280_temperature;BME280_humidity;BME280_pressure;Samples;Min_cycle;Max_cycle;Signal;HPM_P1;HPM_P2
2022/04/06 00:01:45;;;;;;;;;;;;;;;5.79;62.48;98455.00;5054762;28;1431;-96
2022/04/06 00:04:11;;;;;;;;;;;;;;;5.77;62.44;98462.47;5055274;28;1205;-96
2022/04/06 00:06:37;;;;;;;;;;;;;;;5.75;62.49;98456.53;5042721;28;1977;-96
2022/04/06 00:09:04;;;;;;;;;;;;;;;5.75;62.58;98461.06;5055343;28;1178;-96
2022/04/06 00:11:30;;;;;;;;;;;;;;;5.73;62.33;98447.94;5055053;28;1523;-96
2022/04/06 00:13:57;;;;;;;;;;;;;;;5.72;62.33;98456.22;5054894;28;1500;-96
2022/04/06 00:24:36;;;;;;;;;;;;;;;5.65;62.16;98441.16;5044332;28;1906;-96
2022/04/06 00:27:02;;;;;;;;;;;;;;;5.64;61.95;98436.84;5044443;28;1406;-96
2022/04/06 00:29:29;;;;;;;;;;;;;;;5.62;62.34;98438.16;5055057;28;1372;-96
2022/04/06 00:31:55;;;;;;;;;;;;;;;5.62;62.30;98438.97;5046861;28;1518;-96
2022/04/06 00:35:28;;;;;;;;;;;;;;;5.60;62.28;98440.25;5048823;28;1269;-96
2022/04/06 00:37:08;;;;;;;;;;;;;;;5.58;62.02;98440.47;5043490;28;1414;-96
2022/04/06 00:39:35;;;;;;;;;;;;;;;5.57;62.23;98446.88;5054836;28;1180;-96
2022/04/06 00:42:01;;;;;;;;;;;;;;;5.57;62.31;98448.72;5054101;28;1514;-96
2022/04/06 00:44:28;;;;;;;;;;;;;;;5.54;62.12;98442.00;5054337;28;1348;-95
2022/04/06 00:46:54;;;;;;;;;;;;;;;5.54;62.02;98454.53;5053229;28;2086;-96
2022/04/06 00:49:20;;;;;;;;;;;;;;;5.53;62.18;98456.41;5053630;28;1445;-96
2022/04/06 00:51:47;;;;;;;;;;;;;;;5.51;62.11;98444.34;5054090;28;1474;-96
2022/04/06 00:54:13;;;;;;;;;;;;;;;5.49;61.83;98449.09;5054456;28;1299;-95
2022/04/06 00:56:39;;;;;;;;;;;;;;;5.49;61.91;98446.44;5054575;28;1393;-96
2022/04/06 00:59:06;;;;;;;;;;;;;;;5.45;62.02;98441.56;5045237;28;1387;-96
2022/04/06 01:01:32;;;;;;;;;;;;;;;5.44;62.05;98445.28;5047069;28;1455;-96
2022/04/06 01:03:59;;;;;;;;;;;;;;;5.41;61.92;98432.44;5042640;28;4497;-96
2022/04/06 01:06:25;;;;;;;;;;;;;;;5.40;61.94;98429.97;5056770;28;5120;-96
2022/04/06 01:08:52;;;;;;;;;;;;;;;5.39;61.93;98429.16;5053114;28;1447;-96
2022/04/06 01:11:19;;;;;;;;;;;;;;;5.38;62.08;98429.41;5059478;28;1273;-96
2022/04/06 01:13:45;;;;;;;;;;;;;;;5.37;61.71;98425.13;5053949;28;1591;-96
2022/04/06 01:16:12;;;;;;;;;;;;;;;5.34;62.08;98426.41;5047607;28;1586;-96
2022/04/06 01:18:39;;;;;;;;;;;;;;;5.34;61.90;98423.72;5045271;28;1435;-96
2022/04/06 01:21:06;;;;;;;;;;;;;;;5.33;62.05;98426.66;5052018;28;4205;-95
2022/04/06 01:23:32;;;;;;;;;;;;;;;5.30;61.81;98427.13;5042745;28;1215;-96
2022/04/06 01:25:58;;;;;;;;;;;;;;;5.29;61.76;98428.16;5053435;28;1985;-96
2022/04/06 01:28:26;;;;;;;;;;;;;;;5.27;61.66;98430.28;5036829;28;1526;-96
2022/04/06 01:30:52;;;;;;;;;;;;;;;5.26;61.75;98432.09;5053069;28;1605;-96
2022/04/06 01:33:18;;;;;;;;;;;;;;;5.24;61.78;98429.69;5053228;28;2575;-96
2022/04/06 01:35:45;;;;;;;;;;;;;;;5.23;61.83;98433.41;5053160;28;1852;-96
2022/04/06 01:38:12;;;;;;;;;;;;;;;5.23;61.86;98430.75;5052674;28;1389;-96
2022/04/06 01:40:38;;;;;;;;;;;;;;;5.19;61.82;98432.25;5053703;28;2093;-96
2022/04/06 01:43:04;;;;;;;;;;;;;;;5.18;61.90;98427.97;5053767;28;1574;-96
2022/04/06 01:45:31;;;;;;;;;;;;;;;5.17;61.80;98428.19;5052261;28;1977;-96
2022/04/06 01:47:57;;;;;;;;;;;;;;;5.16;61.38;98426.56;5052927;28;1563;-96
2022/04/06 01:53:04;;;;;;;;;;;;;;;5.13;61.72;98421.72;5021153;28;1695;-94
2022/04/06 01:55:30;;;;;;;;;;;;;;;5.10;61.79;98422.19;5052345;28;1371;-96
2022/04/06 01:57:57;;;;;;;;;;;;;;;5.10;61.74;98428.31;5052628;28;1349;-96
2022/04/06 02:00:23;;;;;;;;;;;;;;;5.10;61.67;98424.84;5051108;28;1697;-96
2022/04/06 02:02:49;;;;;;;;;;;;;;;5.09;61.77;98431.22;5052092;28;1415;-96
2022/04/06 02:05:16;;;;;;;;;;;;;;;5.07;61.72;98428.00;5051229;28;1979;-96
2022/04/06 02:07:43;;;;;;;;;;;;;;;5.05;61.51;98424.75;5051192;28;1486;-96
2022/04/06 02:10:10;;;;;;;;;;;;;;;5.01;61.71;98430.53;5052365;28;1518;-96
2022/04/06 02:12:36;;;;;;;;;;;;;;;5.03;61.58;98422.31;5052638;28;1641;-95
2022/04/06 02:15:02;;;;;;;;;;;;;;;5.00;61.75;98431.59;5050742;28;1715;-96
2022/04/06 02:17:29;;;;;;;;;;;;;;;4.98;61.58;98427.53;5052260;28;1381;-96
2022/04/06 02:19:55;;;;;;;;;;;;;;;4.98;61.57;98428.34;5054815;28;1369;-96
2022/04/06 02:22:21;;;;;;;;;;;;;;;4.95;61.58;98426.16;5059038;28;1362;-96
2022/04/06 02:24:48;;;;;;;;;;;;;;;4.94;61.70;98429.03;5053745;28;1701;-96
2022/04/06 02:27:14;;;;;;;;;;;;;;;4.93;61.51;98430.91;5053202;28;1922;-96
2022/04/06 02:29:41;;;;;;;;;;;;;;;4.91;61.38;98427.69;5035134;28;1431;-96
2022/04/06 02:32:07;;;;;;;;;;;;;;;4.89;61.60;98432.44;5050261;28;1633;-96
2022/04/06 02:34:33;;;;;;;;;;;;;;;4.88;61.63;98428.16;5053906;28;1203;-96
2022/04/06 02:37:00;;;;;;;;;;;;;;;4.87;61.60;98428.38;5052855;28;1517;-96
2022/04/06 02:39:26;;;;;;;;;;;;;;;4.86;61.59;98421.41;5050467;28;1932;-96
2022/04/06 02:41:53;;;;;;;;;;;;;;;4.83;61.50;98417.38;5052663;28;1748;-96
2022/04/06 02:44:19;;;;;;;;;;;;;;;4.81;61.42;98419.44;5028649;28;1200;-96
2022/04/06 02:46:45;;;;;;;;;;;;;;;4.82;61.50;98414.91;5051243;28;1933;-96
2022/04/06 02:49:12;;;;;;;;;;;;;;;4.80;61.61;98406.34;5045800;28;1720;-96
2022/04/06 02:51:38;;;;;;;;;;;;;;;4.77;61.42;98411.09;5055340;28;1587;-96
2022/04/06 02:54:04;;;;;;;;;;;;;;;4.77;61.48;98410.31;5055495;28;1385;-96
2022/04/06 02:56:31;;;;;;;;;;;;;;;4.76;61.50;98408.66;5056047;28;1333;-96
2022/04/06 02:58:57;;;;;;;;;;;;;;;4.74;61.42;98402.78;5057574;28;2084;-96
2022/04/06 03:01:24;;;;;;;;;;;;;;;4.71;61.33;98401.38;5058733;28;2501;-96
2022/04/06 03:03:50;;;;;;;;;;;;;;;4.71;61.48;98403.25;5056443;28;1189;-96
2022/04/06 03:06:16;;;;;;;;;;;;;;;4.69;61.39;98402.66;5056161;28;1914;-96
2022/04/06 03:08:43;;;;;;;;;;;;;;;4.69;61.42;98405.31;5054900;28;1888;-96
2022/04/06 03:11:09;;;;;;;;;;;;;;;4.68;61.20;98399.19;5056344;28;1567;-96
2022/04/06 03:13:35;;;;;;;;;;;;;;;4.66;61.33;98405.78;5052299;28;1456;-96
2022/04/06 03:16:02;;;;;;;;;;;;;;;4.64;61.32;98408.66;5042534;28;1193;-96
2022/04/06 03:18:28;;;;;;;;;;;;;;;4.64;61.26;98407.88;5056049;28;1782;-96
2022/04/06 03:20:55;;;;;;;;;;;;;;;4.61;61.18;98398.47;5056850;28;1214;-96
2022/04/06 03:23:21;;;;;;;;;;;;;;;4.61;61.23;98397.66;5050051;28;1184;-96
2022/04/06 03:25:48;;;;;;;;;;;;;;;4.61;61.48;98392.34;5042152;28;1976;-96
2022/04/06 03:28:14;;;;;;;;;;;;;;;4.61;61.05;98389.66;5049525;28;4979;-96
2022/04/06 03:30:41;;;;;;;;;;;;;;;4.57;61.18;98383.19;5047432;28;2160;-96
2022/04/06 03:33:09;;;;;;;;;;;;;;;4.57;61.10;98385.84;5053148;28;1714;-96
2022/04/06 03:35:36;;;;;;;;;;;;;;;4.55;61.21;98394.06;5050390;28;1875;-96
2022/04/06 03:38:02;;;;;;;;;;;;;;;4.55;61.04;98386.06;5055224;28;1882;-96
2022/04/06 03:40:29;;;;;;;;;;;;;;;4.55;60.95;98378.06;5056913;28;1210;-96
2022/04/06 03:42:56;;;;;;;;;;;;;;;4.55;61.28;98380.75;5052632;28;2163;-96
2022/04/06 03:45:23;;;;;;;;;;;;;;;4.54;60.96;98369.28;5051957;28;2108;-96
2022/04/06 03:47:49;;;;;;;;;;;;;;;4.53;61.03;98364.19;5055970;28;1360;-96
2022/04/06 03:50:15;;;;;;;;;;;;;;;4.53;60.83;98365.00;5055678;28;1204;-96
2022/04/06 03:52:42;;;;;;;;;;;;;;;4.52;60.81;98363.34;5043001;28;1378;-96
2022/04/06 03:55:08;;;;;;;;;;;;;;;4.51;60.98;98361.75;5054137;28;1583;-96
2022/04/06 03:57:35;;;;;;;;;;;;;;;4.51;60.86;98361.75;5054905;28;1697;-96
2022/04/06 04:00:04;;;;;;;;;;;;;;;4.52;60.75;98357.22;5053382;28;1778;-96
2022/04/06 04:02:30;;;;;;;;;;;;;;;4.52;60.87;98357.22;5054464;28;1485;-96
2022/04/06 04:04:56;;;;;;;;;;;;;;;4.50;60.73;98349.47;5048079;28;1542;-96
2022/04/06 04:07:23;;;;;;;;;;;;;;;4.51;60.66;98344.94;5041395;28;1991;-96
2022/04/06 04:09:50;;;;;;;;;;;;;;;4.49;60.62;98344.34;5055244;28;1721;-96
2022/04/06 04:12:16;;;;;;;;;;;;;;;4.47;60.61;98347.28;5052533;28;1744;-96
2022/04/06 04:14:43;;;;;;;;;;;;;;;4.48;60.69;98346.22;5053735;28;2166;-96
2022/04/06 04:17:09;;;;;;;;;;;;;;;4.46;60.56;98350.97;5053097;28;2112;-96
2022/04/06 04:19:36;;;;;;;;;;;;;;;4.46;60.47;98353.63;5053705;28;1380;-96
2022/04/06 04:22:02;;;;;;;;;;;;;;;4.48;60.67;98354.22;5054947;28;1277;-96
2022/04/06 04:24:29;;;;;;;;;;;;;;;4.47;60.52;98354.44;5049825;28;1301;-96
2022/04/06 04:26:55;;;;;;;;;;;;;;;4.44;60.26;98350.41;5048400;28;1985;-96
2022/04/06 04:29:23;;;;;;;;;;;;;;;4.45;60.40;98351.22;5053719;28;2052;-96
2022/04/06 04:31:50;;;;;;;;;;;;;;;4.45;60.40;98352.03;5053938;28;1658;-96
2022/04/06 04:34:16;;;;;;;;;;;;;;;4.42;60.43;98349.81;5053216;28;1495;-96
2022/04/06 04:36:42;;;;;;;;;;;;;;;4.44;60.28;98350.41;5045406;28;1748;-96
2022/04/06 04:39:09;;;;;;;;;;;;;;;4.46;60.44;98347.50;5038556;28;1180;-96
2022/04/06 04:41:35;;;;;;;;;;;;;;;4.44;60.26;98350.41;5042881;28;1831;-96
2022/04/06 04:44:02;;;;;;;;;;;;;;;4.43;60.44;98354.09;5053102;28;1865;-96
2022/04/06 04:46:28;;;;;;;;;;;;;;;4.43;60.25;98347.97;5036707;28;1914;-96
2022/04/06 04:48:54;;;;;;;;;;;;;;;4.44;60.23;98353.06;5055287;28;1219;-96
2022/04/06 04:51:21;;;;;;;;;;;;;;;4.46;60.21;98350.97;5040475;28;1152;-96
2022/04/06 04:53:47;;;;;;;;;;;;;;;4.43;60.04;98351.44;5054434;28;1455;-96
2022/04/06 04:56:15;;;;;;;;;;;;;;;4.43;60.38;98354.09;5052697;28;1539;-96
2022/04/06 04:58:41;;;;;;;;;;;;;;;4.41;60.02;98348.22;5041196;28;2511;-96
2022/04/06 05:01:08;;;;;;;;;;;;;;;4.44;59.77;98344.25;5052733;28;1518;-96
2022/04/06 05:03:34;;;;;;;;;;;;;;;4.42;59.99;98343.69;5043707;28;1558;-96
2022/04/06 05:06:01;;;;;;;;;;;;;;;4.42;60.01;98331.16;5048402;28;2348;-96
2022/04/06 05:08:27;;;;;;;;;;;;;;;4.41;60.18;98336.72;5049411;28;1841;-96
2022/04/06 05:10:54;;;;;;;;;;;;;;;4.41;60.33;98334.88;5034579;28;1908;-96
2022/04/06 05:13:20;;;;;;;;;;;;;;;4.41;59.98;98332.22;5063519;28;2171;-96
2022/04/06 05:15:47;;;;;;;;;;;;;;;4.40;59.89;98330.56;5049766;28;1605;-96
2022/04/06 05:18:13;;;;;;;;;;;;;;;4.39;59.97;98331.63;5054453;28;1353;-96
2022/04/06 05:20:39;;;;;;;;;;;;;;;4.42;59.92;98339.16;5054254;28;1283;-96
2022/04/06 05:23:06;;;;;;;;;;;;;;;4.41;59.70;98339.38;5046235;28;1761;-96
2022/04/06 05:25:32;;;;;;;;;;;;;;;4.40;59.86;98327.91;5039551;28;1340;-96
2022/04/06 05:27:59;;;;;;;;;;;;;;;4.41;59.92;98324.22;5046182;28;4480;-96
2022/04/06 05:30:26;;;;;;;;;;;;;;;4.39;59.93;98325.50;5044498;28;4322;-96
2022/04/06 05:32:52;;;;;;;;;;;;;;;4.40;59.75;98329.78;5053930;28;1585;-96
2022/04/06 05:35:19;;;;;;;;;;;;;;;4.41;59.70;98320.72;5053458;28;4633;-96
2022/04/06 05:37:45;;;;;;;;;;;;;;;4.40;59.76;98327.09;5053854;28;1197;-96
2022/04/06 05:40:11;;;;;;;;;;;;;;;4.43;59.64;98327.44;5036435;28;1730;-96
2022/04/06 05:42:38;;;;;;;;;;;;;;;4.44;59.46;98328.25;5038068;28;2102;-95
2022/04/06 05:45:04;;;;;;;;;;;;;;;4.40;59.70;98327.91;5040308;28;1646;-95
2022/04/06 05:47:31;;;;;;;;;;;;;;;4.41;59.61;98326.88;5053227;28;4417;-96
2022/04/06 05:49:57;;;;;;;;;;;;;;;4.41;59.48;98331.38;5054496;28;2097;-96
2022/04/06 05:52:23;;;;;;;;;;;;;;;4.38;59.73;98324.66;5053052;28;1626;-96
2022/04/06 05:54:51;;;;;;;;;;;;;;;4.45;59.26;98321.88;5047744;28;1300;-95
2022/04/06 05:57:17;;;;;;;;;;;;;;;4.41;59.70;98323.38;5034386;28;1607;-95
2022/04/06 05:59:44;;;;;;;;;;;;;;;4.41;59.80;98321.56;5045207;28;3309;-96
2022/04/06 06:02:11;;;;;;;;;;;;;;;4.42;59.29;98314.38;5049440;28;2217;-95
2022/04/06 06:04:38;;;;;;;;;;;;;;;4.41;59.44;98320.72;5052373;28;1717;-96
2022/04/06 06:07:05;;;;;;;;;;;;;;;4.45;59.34;98311.22;5055222;28;1922;-95
2022/04/06 06:09:31;;;;;;;;;;;;;;;4.39;59.52;98307.66;5037423;28;1527;-96
2022/04/06 06:11:58;;;;;;;;;;;;;;;4.40;59.51;98305.78;5047569;28;2394;-96
2022/04/06 06:14:24;;;;;;;;;;;;;;;4.42;59.43;98311.69;5043181;28;2176;-96
2022/04/06 06:16:50;;;;;;;;;;;;;;;4.45;59.22;98308.56;5052367;28;1760;-96
2022/04/06 06:19:17;;;;;;;;;;;;;;;4.49;59.15;98301.72;5046404;28;2656;-96
2022/04/06 06:21:43;;;;;;;;;;;;;;;4.42;59.46;98291.19;5047541;28;2425;-96
2022/04/06 06:24:10;;;;;;;;;;;;;;;4.42;59.45;98298.38;5050781;28;2133;-96
2022/04/06 06:26:36;;;;;;;;;;;;;;;4.41;59.33;98302.91;5044604;28;2147;-96
2022/04/06 06:29:03;;;;;;;;;;;;;;;4.44;59.22;98296.25;5057278;28;1765;-95
2022/04/06 06:31:29;;;;;;;;;;;;;;;4.43;59.22;98297.31;5048282;28;3046;-96
2022/04/06 06:33:55;;;;;;;;;;;;;;;4.43;59.52;98292.78;5055988;28;1999;-96
2022/04/06 06:36:23;;;;;;;;;;;;;;;4.44;59.43;98293.59;5047577;28;3749;-95
2022/04/06 06:38:49;;;;;;;;;;;;;;;4.45;59.24;98298.69;5049117;28;3578;-95
2022/04/06 06:41:15;;;;;;;;;;;;;;;4.46;59.31;98300.31;5048906;28;2449;-95
2022/04/06 06:43:42;;;;;;;;;;;;;;;4.42;59.34;98303.69;5049663;28;3762;-95
2022/04/06 06:46:08;;;;;;;;;;;;;;;4.43;59.33;98302.66;5052492;28;1374;-95
2022/04/06 06:48:35;;;;;;;;;;;;;;;4.43;59.72;98303.44;5046006;28;3883;-95
2022/04/06 06:51:01;;;;;;;;;;;;;;;4.44;59.25;98305.09;5051638;28;3763;-95
2022/04/06 06:53:28;;;;;;;;;;;;;;;4.48;59.05;98294.75;5062754;28;3867;-95
2022/04/06 06:55:54;;;;;;;;;;;;;;;4.44;59.36;98293.59;5048215;28;3613;-95
2022/04/06 06:58:21;;;;;;;;;;;;;;;4.47;58.98;98291.28;5043600;28;1255;-96
2022/04/06 07:00:47;;;;;;;;;;;;;;;4.49;59.24;98293.72;5050177;28;3605;-95
2022/04/06 07:03:13;;;;;;;;;;;;;;;4.50;59.00;98288.16;5054577;28;3625;-93
2022/04/06 07:05:40;;;;;;;;;;;;;;;4.50;59.01;98282.81;5050116;28;3977;-95
2022/04/06 07:08:06;;;;;;;;;;;;;;;4.46;59.17;98284.31;5051441;28;3402;-95
2022/04/06 07:10:32;;;;;;;;;;;;;;;4.47;59.16;98285.97;5045231;28;1427;-95
2022/04/06 07:12:59;;;;;;;;;;;;;;;4.49;59.04;98277.72;5050944;28;3679;-95
2022/04/06 07:15:25;;;;;;;;;;;;;;;4.51;59.02;98276.44;5052493;28;2285;-95
2022/04/06 07:17:52;;;;;;;;;;;;;;;4.48;58.98;98281.44;5048172;28;4266;-95
2022/04/06 07:20:19;;;;;;;;;;;;;;;4.51;59.13;98273.78;5054431;28;3599;-95
2022/04/06 07:22:46;;;;;;;;;;;;;;;4.49;59.33;98272.38;5055344;28;1356;-95
2022/04/06 07:25:12;;;;;;;;;;;;;;;4.50;59.24;98272.16;5045474;28;3613;-95
2022/04/06 07:27:39;;;;;;;;;;;;;;;4.54;58.92;98267.97;5060153;28;2747;-95
2022/04/06 07:30:06;;;;;;;;;;;;;;;4.51;59.19;98271.09;5044738;28;3700;-95
2022/04/06 07:32:32;;;;;;;;;;;;;;;4.51;59.21;98264.97;5043848;28;3494;-95
2022/04/06 07:34:58;;;;;;;;;;;;;;;4.57;58.95;98265.88;5046413;28;4050;-95
2022/04/06 07:37:25;;;;;;;;;;;;;;;4.55;59.03;98250.13;5050318;28;3898;-95
2022/04/06 07:39:51;;;;;;;;;;;;;;;4.53;59.27;98263.69;5054225;28;1388;-95
2022/04/06 07:42:18;;;;;;;;;;;;;;;4.57;59.17;98263.22;5051116;28;3715;-95
2022/04/06 07:44:44;;;;;;;;;;;;;;;4.55;59.11;98263.44;5050765;28;1538;-95
2022/04/06 07:47:11;;;;;;;;;;;;;;;4.61;58.92;98262.50;5050333;28;3647;-95
2022/04/06 07:49:37;;;;;;;;;;;;;;;4.59;58.83;98255.78;5053102;28;3750;-95
2022/04/06 07:52:04;;;;;;;;;;;;;;;4.62;58.96;98250.81;5051010;28;3578;-95
2022/04/06 07:54:30;;;;;;;;;;;;;;;4.62;59.02;98250.81;5053902;28;1697;-95
2022/04/06 07:56:57;;;;;;;;;;;;;;;4.63;58.98;98254.28;5054312;28;3625;-95
2022/04/06 07:59:23;;;;;;;;;;;;;;;4.62;59.09;98250.81;5047577;28;4725;-95
2022/04/06 08:01:49;;;;;;;;;;;;;;;4.65;59.00;98252.19;5050086;28;3144;-95
2022/04/06 08:04:16;;;;;;;;;;;;;;;4.63;59.10;98243.59;5058394;28;3151;-95
2022/04/06 08:06:42;;;;;;;;;;;;;;;4.65;59.02;98247.66;5041463;28;1918;-95
2022/04/06 08:09:09;;;;;;;;;;;;;;;4.70;58.91;98238.94;5054778;28;1949;-96
2022/04/06 08:11:35;;;;;;;;;;;;;;;4.67;58.95;98242.06;5053472;28;1663;-95
2022/04/06 08:14:01;;;;;;;;;;;;;;;4.67;59.04;98247.41;5053738;28;2326;-95
2022/04/06 08:16:28;;;;;;;;;;;;;;;4.68;58.99;98238.38;5053673;28;3214;-95
2022/04/06 08:18:54;;;;;;;;;;;;;;;4.69;58.86;98238.13;5056185;28;1791;-95
2022/04/06 08:21:24;;;;;;;;;;;;;;;4.73;58.94;98225.13;5053440;28;1547;-95
2022/04/06 08:23:51;;;;;;;;;;;;;;;4.74;58.85;98230.22;5049993;28;2249;-95
2022/04/06 08:26:17;;;;;;;;;;;;;;;4.72;58.92;98220.84;5050804;28;1607;-95
2022/04/06 08:28:47;;;;;;;;;;;;;;;4.74;59.01;98224.91;5046484;28;3033;-95
2022/04/06 08:31:25;;;;;;;;;;;;;;;4.77;58.96;98218.28;5052614;28;1682;-95
2022/04/06 08:33:54;;;;;;;;;;;;;;;4.78;59.12;98219.88;5048529;28;2008;-95
2022/04/06 08:36:21;;;;;;;;;;;;;;;4.78;58.99;98215.34;5049260;28;2829;-95
2022/04/06 08:38:47;;;;;;;;;;;;;;;4.80;58.99;98220.47;5050141;28;2266;-95
2022/04/06 08:41:16;;;;;;;;;;;;;;;4.81;58.93;98221.28;5051184;28;1653;-94
2022/04/06 08:43:53;;;;;;;;;;;;;;;4.82;59.00;98220.22;5037215;28;1210;-94
2022/04/06 08:46:20;;;;;;;;;;;;;;;4.81;59.00;98218.59;5047594;28;2273;-94
2022/04/06 08:48:46;;;;;;;;;;;;;;;4.80;59.14;98214.34;5052881;28;2193;-94
2022/04/06 08:51:13;;;;;;;;;;;;;;;4.87;58.97;98213.13;5043554;28;1293;-94
2022/04/06 08:53:39;;;;;;;;;;;;;;;4.85;59.03;98209.88;5054511;28;1705;-95
2022/04/06 08:56:06;;;;;;;;;;;;;;;4.88;59.07;98211.25;5054425;28;1181;-95
2022/04/06 08:58:33;;;;;;;;;;;;;;;4.87;58.93;98210.44;5043744;28;1716;-94
2022/04/06 09:00:59;;;;;;;;;;;;;;;4.88;59.04;98204.09;5047611;28;2118;-96
2022/04/06 09:03:25;;;;;;;;;;;;;;;4.91;59.08;98197.44;5038520;28;2055;-96
2022/04/06 09:05:52;;;;;;;;;;;;;;;4.91;59.05;98198.28;5051857;28;2231;-96
2022/04/06 09:08:18;;;;;;;;;;;;;;;4.93;59.04;98193.47;5051456;28;2005;-96
2022/04/06 09:10:45;;;;;;;;;;;;;;;4.95;58.98;98191.41;5060729;28;1470;-96
2022/04/06 09:13:11;;;;;;;;;;;;;;;4.96;59.00;98182.34;5053907;28;1862;-96
2022/04/06 09:15:37;;;;;;;;;;;;;;;4.94;59.04;98184.44;5051937;28;1642;-96
2022/04/06 09:18:04;;;;;;;;;;;;;;;4.97;59.08;98178.63;5054441;28;1416;-94
2022/04/06 09:20:30;;;;;;;;;;;;;;;4.99;59.11;98181.84;5044621;28;1598;-94
2022/04/06 09:22:56;;;;;;;;;;;;;;;5.09;58.85;98183.91;5053498;28;1720;-94
2022/04/06 09:25:23;;;;;;;;;;;;;;;5.08;58.79;98179.59;5053657;28;1557;-94
2022/04/06 09:27:49;;;;;;;;;;;;;;;5.03;59.08;98163.53;5037483;28;1991;-92
2022/04/06 09:30:15;;;;;;;;;;;;;;;5.06;59.00;98160.38;5045108;28;1594;-94
2022/04/06 09:32:42;;;;;;;;;;;;;;;5.06;59.01;98157.69;5050830;28;1173;-94
2022/04/06 09:35:08;;;;;;;;;;;;;;;5.06;59.03;98160.38;5051511;28;2490;-94
2022/04/06 09:37:34;;;;;;;;;;;;;;;5.06;59.28;98156.88;5053875;28;1197;-94
2022/04/06 09:40:01;;;;;;;;;;;;;;;5.05;59.08;98157.94;5049040;28;1717;-94
2022/04/06 09:42:27;;;;;;;;;;;;;;;5.08;59.21;98152.13;5053600;28;2130;-94
2022/04/06 09:47:40;;;;;;;;;;;;;;;5.10;59.12;98145.47;5055116;28;1959;-94
2022/04/06 09:50:06;;;;;;;;;;;;;;;5.11;59.27;98136.41;5051379;28;2491;-94
2022/04/06 09:52:33;;;;;;;;;;;;;;;5.14;59.17;98129.78;5053529;28;1822;-94
2022/04/06 09:54:59;;;;;;;;;;;;;;;5.16;59.12;98139.19;5052709;28;1833;-94
2022/04/06 09:57:25;;;;;;;;;;;;;;;5.15;59.13;98140.25;5054096;28;1188;-94
2022/04/06 09:59:52;;;;;;;;;;;;;;;5.15;59.24;98131.44;5053818;28;1535;-94
2022/04/06 10:02:18;;;;;;;;;;;;;;;5.18;59.27;98136.28;5056392;28;2077;-94
2022/04/06 10:04:45;;;;;;;;;;;;;;;5.16;59.57;98138.38;5058533;28;1266;-94
2022/04/06 10:07:11;;;;;;;;;;;;;;;5.21;59.28;98138.47;5056956;28;1906;-94
2022/04/06 10:09:39;;;;;;;;;;;;;;;5.20;59.27;98137.63;5053276;28;1456;-94
2022/04/06 10:12:05;;;;;;;;;;;;;;;5.20;59.25;98131.47;5044865;28;1263;-94
2022/04/06 10:14:32;;;;;;;;;;;;;;;5.22;59.29;98126.72;5057464;28;1284;-94
2022/04/06 10:16:58;;;;;;;;;;;;;;;5.24;59.44;98130.78;5055975;28;1561;-94
2022/04/06 10:19:24;;;;;;;;;;;;;;;5.25;59.38;98123.56;5050433;28;1365;-94
2022/04/06 10:21:53;;;;;;;;;;;;;;;5.26;59.36;98122.50;5056772;28;1247;-94
2022/04/06 10:24:19;;;;;;;;;;;;;;;5.29;59.31;98118.53;5055896;28;1689;-94
2022/04/06 10:26:46;;;;;;;;;;;;;;;5.30;59.36;98114.84;5056866;28;1408;-93
2022/04/06 10:29:12;;;;;;;;;;;;;;;5.30;59.47;98112.16;5049056;28;4756;-94
2022/04/06 10:31:38;;;;;;;;;;;;;;;5.31;59.25;98111.91;5053043;28;4131;-95
2022/04/06 10:34:05;;;;;;;;;;;;;;;5.33;59.52;98115.16;5054041;28;4194;-94
2022/04/06 10:36:32;;;;;;;;;;;;;;;5.32;59.33;98107.38;5043801;28;1507;-94
2022/04/06 10:38:59;;;;;;;;;;;;;;;5.35;59.32;98107.69;5055026;28;1712;-94
2022/04/06 10:41:25;;;;;;;;;;;;;;;5.35;59.35;98109.56;5051508;28;1582;-94
2022/04/06 10:43:52;;;;;;;;;;;;;;;5.38;59.26;98103.72;5056948;28;1188;-94
2022/04/06 10:46:19;;;;;;;;;;;;;;;5.37;59.32;98102.91;5059264;28;3996;-94
2022/04/06 10:48:46;;;;;;;;;;;;;;;5.37;59.38;98100.25;5053025;28;1957;-94
2022/04/06 10:51:12;;;;;;;;;;;;;;;5.38;59.69;98096.53;5048916;28;2158;-94
2022/04/06 10:53:38;;;;;;;;;;;;;;;5.38;59.40;98095.72;5036470;28;2273;-95
2022/04/06 10:56:06;;;;;;;;;;;;;;;5.42;59.61;98094.19;5052668;28;2218;-94
2022/04/06 10:58:33;;;;;;;;;;;;;;;5.43;59.42;98091.25;5049906;28;2902;-94
2022/04/06 11:00:59;;;;;;;;;;;;;;;5.43;59.67;98090.44;5047767;28;4162;-96
2022/04/06 11:03:26;;;;;;;;;;;;;;;5.45;59.56;98081.16;5050050;28;4791;-95
2022/04/06 11:05:53;;;;;;;;;;;;;;;5.47;59.52;98080.88;5045562;28;3000;-95
2022/04/06 11:11:03;;;;;;;;;;;;;;;5.51;59.50;98083.91;5069081;28;2115;-96
2022/04/06 11:13:30;;;;;;;;;;;;;;;5.49;59.45;98073.44;5046380;28;3953;-94
2022/04/06 11:15:56;;;;;;;;;;;;;;;5.49;59.51;98073.44;5051498;28;3514;-94
2022/04/06 11:18:22;;;;;;;;;;;;;;;5.50;59.80;98072.41;5054747;28;4504;-95
2022/04/06 11:20:49;;;;;;;;;;;;;;;5.54;59.58;98067.38;5049918;28;4085;-95
2022/04/06 11:23:16;;;;;;;;;;;;;;;5.52;59.78;98069.47;5040846;28;1707;-95
2022/04/06 11:25:43;;;;;;;;;;;;;;;5.54;59.68;98065.50;5047208;28;3934;-95
2022/04/06 11:28:09;;;;;;;;;;;;;;;5.57;59.65;98057.00;5052375;28;3993;-94
2022/04/06 11:30:38;;;;;;;;;;;;;;;5.54;59.74;98062.03;5046394;28;3767;-95
2022/04/06 11:33:04;;;;;;;;;;;;;;;5.57;59.85;98067.69;5052455;28;2228;-95
2022/04/06 11:35:30;;;;;;;;;;;;;;;5.59;59.76;98060.25;5041777;28;3912;-95
2022/04/06 11:37:57;;;;;;;;;;;;;;;5.57;59.92;98058.88;5042746;28;4073;-94
2022/04/06 11:40:23;;;;;;;;;;;;;;;5.57;59.68;98054.34;5053024;28;3846;-95
2022/04/06 11:42:50;;;;;;;;;;;;;;;5.59;59.77;98052.22;5051699;28;3970;-94
2022/04/06 11:45:16;;;;;;;;;;;;;;;5.61;59.70;98054.63;5052501;28;2139;-94
2022/04/06 11:47:45;;;;;;;;;;;;;;;5.62;59.83;98058.94;5053251;28;4024;-95
2022/04/06 11:50:12;;;;;;;;;;;;;;;5.64;59.75;98054.94;5052742;28;4594;-95
2022/04/06 11:52:40;;;;;;;;;;;;;;;5.65;59.76;98053.09;5048749;28;4116;-95
2022/04/06 11:55:07;;;;;;;;;;;;;;;5.66;59.81;98044.03;5046577;28;3738;-95
2022/04/06 11:57:33;;;;;;;;;;;;;;;5.65;59.78;98048.56;5047510;28;2922;-95
2022/04/06 12:00:00;;;;;;;;;;;;;;;5.68;59.92;98044.59;5048110;28;4101;-95
2022/04/06 12:02:26;;;;;;;;;;;;;;;5.68;59.68;98044.59;5053868;28;1937;-95
2022/04/06 12:04:52;;;;;;;;;;;;;;;5.70;59.93;98039.78;5065891;28;4077;-95
2022/04/06 12:07:19;;;;;;;;;;;;;;;5.69;59.88;98033.66;5047547;28;3994;-96
2022/04/06 12:09:46;;;;;;;;;;;;;;;5.69;59.80;98036.31;5054326;28;1890;-95
2022/04/06 12:12:13;;;;;;;;;;;;;;;5.70;59.76;98034.44;5045109;28;3667;-95
2022/04/06 12:14:41;;;;;;;;;;;;;;;5.72;59.98;98034.22;5053106;28;2170;-95
2022/04/06 12:17:07;;;;;;;;;;;;;;;5.73;59.94;98025.13;5050675;28;3751;-95
2022/04/06 12:19:34;;;;;;;;;;;;;;;5.72;59.92;98032.34;5048842;28;3953;-95
2022/04/06 12:22:00;;;;;;;;;;;;;;;5.74;59.71;98030.25;5059475;28;2231;-96
2022/04/06 12:24:27;;;;;;;;;;;;;;;5.77;59.92;98028.94;5047011;28;4017;-95
2022/04/06 12:26:54;;;;;;;;;;;;;;;5.75;60.02;98031.03;5053129;28;3858;-95
2022/04/06 12:29:21;;;;;;;;;;;;;;;5.77;60.13;98031.63;5047454;28;3978;-95
2022/04/06 12:31:47;;;;;;;;;;;;;;;5.79;59.86;98032.16;5043490;28;3734;-94
2022/04/06 12:34:13;;;;;;;;;;;;;;;5.79;60.15;98021.47;5052676;28;2461;-96
2022/04/06 12:36:41;;;;;;;;;;;;;;;5.80;60.02;98023.91;5049258;28;4105;-95
2022/04/06 12:39:08;;;;;;;;;;;;;;;5.83;59.90;98019.94;5048520;28;4217;-94
2022/04/06 12:41:35;;;;;;;;;;;;;;;5.82;60.00;98018.28;5050480;28;2262;-95
2022/04/06 12:44:02;;;;;;;;;;;;;;;5.84;60.05;98016.19;5043630;28;4088;-95
2022/04/06 12:46:29;;;;;;;;;;;;;;;5.82;60.25;98013.75;5044422;28;2806;-95
2022/04/06 12:48:55;;;;;;;;;;;;;;;5.85;59.75;98015.94;5046990;28;4046;-96
2022/04/06 12:51:22;;;;;;;;;;;;;;;5.86;59.88;98006.88;5049765;28;2314;-93
2022/04/06 12:53:48;;;;;;;;;;;;;;;5.88;59.92;98006.59;5043219;28;4213;-95
2022/04/06 12:56:15;;;;;;;;;;;;;;;5.87;60.15;98003.13;5050799;28;2205;-95
2022/04/06 12:58:42;;;;;;;;;;;;;;;5.89;60.14;97997.56;5039961;28;4771;-94
2022/04/06 13:01:09;;;;;;;;;;;;;;;5.87;60.19;97999.66;5038328;28;4303;-95
2022/04/06 13:03:36;;;;;;;;;;;;;;;5.89;60.15;97997.56;5050091;28;3964;-95
2022/04/06 13:06:02;;;;;;;;;;;;;;;5.89;60.00;97992.22;5047857;28;4514;-93
2022/04/06 13:08:28;;;;;;;;;;;;;;;5.89;60.07;97990.34;5050797;28;1984;-95
2022/04/06 13:10:55;;;;;;;;;;;;;;;5.92;60.19;97989.03;5048572;28;4075;-95
2022/04/06 13:13:21;;;;;;;;;;;;;;;5.92;60.15;97986.38;5037058;28;3973;-95
2022/04/06 13:15:48;;;;;;;;;;;;;;;5.91;60.05;97982.88;5049849;28;4149;-95
2022/04/06 13:18:16;;;;;;;;;;;;;;;5.93;59.94;97979.97;5049586;28;2101;-95
2022/04/06 13:20:42;;;;;;;;;;;;;;;5.95;60.32;97979.75;5050492;28;4202;-94